sensor_id;sensor_type;location;lat;lon;timestamp;pressure;altitude;pressure_sealevel;temperature;humidity
58698;BME280;44475;53.206;-6.106;2024-03-25T13:24:24;99017.94;;;20.87;45.93
58698;BME280;44475;53.206;-6.106;2024-03-25T13:26:50;99007.53;;;20.83;46.13
58698;BME280;44475;53.206;-6.106;2024-03-25T13:29:17;99012.97;;;20.83;46.03
58698;BME280;44475;53.206;-6.106;2024-03-25T13:31:43;99008.75;;;20.88;45.52
58698;BME280;44475;53.206;-6.106;2024-03-25T13:34:09;99004.81;;;20.83;45.90
58698;BME280;44475;53.206;-6.106;2024-03-25T13:36:35;98995.16;;;20.88;45.58
58698;BME280;44475;53.206;-6.106;2024-03-25T13:39:03;98999.34;;;20.83;46.07
58698;BME280;44475;53.206;-6.106;2024-03-25T13:41:29;98997.50;;;20.83;45.88
58698;BME280;44475;53.206;-6.106;2024-03-25T13:43:55;98993.97;;;20.91;45.57
58698;BME280;44475;53.206;-6.106;2024-03-25T13:46:22;98999.03;;;20.86;45.88
58698;BME280;44475;53.206;-6.106;2024-03-25T13:48:48;98993.41;;;20.79;46.05
58698;BME280;44475;53.206;-6.106;2024-03-25T13:51:14;98991.88;;;20.85;45.97
58698;BME280;44475;53.206;-6.106;2024-03-25T13:53:41;98983.06;;;20.91;45.80
58698;BME280;44475;53.206;-6.106;2024-03-25T13:56:07;98982.53;;;20.87;45.79
58698;BME280;44475;53.206;-6.106;2024-03-25T13:58:33;98988.84;;;20.88;45.89
58698;BME280;44475;53.206;-6.106;2024-03-25T14:01:05;98982.53;;;20.87;45.68
58698;BME280;44475;53.206;-6.106;2024-03-25T14:03:33;98984.75;;;20.84;45.70
58698;BME280;44475;53.206;-6.106;2024-03-25T14:05:59;98984.56;;;20.85;45.93
58698;BME280;44475;53.206;-6.106;2024-03-25T14:08:25;98978.28;;;20.85;45.94
58698;BME280;44475;53.206;-6.106;2024-03-25T14:10:59;98984.75;;;20.84;45.75
58698;BME280;44475;53.206;-6.106;2024-03-25T14:13:26;98993.75;;;20.84;45.71
58698;BME280;44475;53.206;-6.106;2024-03-25T14:15:52;98976.25;;;20.87;45.92
58698;BME280;44475;53.206;-6.106;2024-03-25T14:18:18;98983.41;;;20.88;45.61
58698;BME280;44475;53.206;-6.106;2024-03-25T14:20:45;98964.03;;;20.91;45.43
58698;BME280;44475;53.206;-6.106;2024-03-25T14:23:18;98954.47;;;20.87;45.72
58698;BME280;44475;53.206;-6.106;2024-03-25T14:25:45;98954.66;;;20.94;45.63
58698;BME280;44475;53.206;-6.106;2024-03-25T14:28:11;98954.47;;;20.87;45.83
58698;BME280;44475;53.206;-6.106;2024-03-25T14:30:37;98950.91;;;20.86;46.12
58698;BME280;44475;53.206;-6.106;2024-03-25T14:33:04;98943.75;;;20.85;46.14
58698;BME280;44475;53.206;-6.106;2024-03-25T14:35:30;98954.16;;;20.90;45.83
58698;BME280;44475;53.206;-6.106;2024-03-25T14:37:56;98946.16;;;20.88;46.03
58698;BME280;44475;53.206;-6.106;2024-03-25T14:40:22;98930.13;;;20.94;46.02
58698;BME280;44475;53.206;-6.106;2024-03-25T14:42:49;98935.94;;;20.90;45.81
58698;BME280;44475;53.206;-6.106;2024-03-25T14:45:15;98943.09;;;20.91;45.83
58698;BME280;44475;53.206;-6.106;2024-03-25T14:47:41;98938.47;;;20.84;46.30
58698;BME280;44475;53.206;-6.106;2024-03-25T14:50:08;98936.63;;;21.01;46.00
58698;BME280;44475;53.206;-6.106;2024-03-25T14:52:34;98930.84;;;20.96;46.14
58698;BME280;44475;53.206;-6.106;2024-03-25T14:55:00;98929.47;;;20.91;46.18
58698;BME280;44475;53.206;-6.106;2024-03-25T14:57:27;98920.47;;;20.91;45.95
58698;BME280;44475;53.206;-6.106;2024-03-25T15:00:24;98924.19;;;20.90;45.83
58698;BME280;44475;53.206;-6.106;2024-03-25T15:02:54;98927.25;;;20.87;46.13
58698;BME280;44475;53.206;-6.106;2024-03-25T15:05:20;98940.53;;;20.98;45.54
58698;BME280;44475;53.206;-6.106;2024-03-25T15:07:47;98919.09;;;20.87;45.74
58698;BME280;44475;53.206;-6.106;2024-03-25T15:10:13;98926.22;;;20.88;45.78
58698;BME280;44475;53.206;-6.106;2024-03-25T15:12:39;98923.16;;;20.83;45.74
58698;BME280;44475;53.206;-6.106;2024-03-25T15:15:06;98929.28;;;20.85;45.74
58698;BME280;44475;53.206;-6.106;2024-03-25T15:17:36;98931.84;;;20.86;45.73
58698;BME280;44475;53.206;-6.106;2024-03-25T15:20:04;98926.06;;;20.81;45.89
58698;BME280;44475;53.206;-6.106;2024-03-25T15:22:31;98916.19;;;20.80;45.95
58698;BME280;44475;53.206;-6.106;2024-03-25T15:24:58;98930.97;;;20.86;45.68
58698;BME280;44475;53.206;-6.106;2024-03-25T15:27:24;98936.78;;;20.91;45.53
58698;BME280;44475;53.206;-6.106;2024-03-25T15:29:50;98936.09;;;20.80;45.64
58698;BME280;44475;53.206;-6.106;2024-03-25T15:32:18;98949.19;;;20.85;45.63
58698;BME280;44475;53.206;-6.106;2024-03-25T15:34:44;98942.41;;;20.89;45.57
58698;BME280;44475;53.206;-6.106;2024-03-25T15:37:10;98947.66;;;20.83;45.97
58698;BME280;44475;53.206;-6.106;2024-03-25T15:39:37;98947.16;;;20.87;45.55
58698;BME280;44475;53.206;-6.106;2024-03-25T15:42:04;98952.28;;;20.90;45.57
58698;BME280;44475;53.206;-6.106;2024-03-25T15:44:32;98962.00;;;21.01;45.87
58698;BME280;44475;53.206;-6.106;2024-03-25T15:46:58;98957.72;;;20.90;45.95
58698;BME280;44475;53.206;-6.106;2024-03-25T15:49:24;98957.72;;;20.90;45.90
58698;BME280;44475;53.206;-6.106;2024-03-25T15:51:51;98971.31;;;20.82;46.01
58698;BME280;44475;53.206;-6.106;2024-03-25T15:54:17;98965.34;;;20.87;45.73
58698;BME280;44475;53.206;-6.106;2024-03-25T15:56:44;98966.91;;;20.98;45.55
58698;BME280;44475;53.206;-6.106;2024-03-25T15:59:10;98965.19;;;20.88;45.68
58698;BME280;44475;53.206;-6.106;2024-03-25T16:01:36;98974.69;;;20.84;45.83
58698;BME280;44475;53.206;-6.106;2024-03-25T16:04:02;98976.22;;;20.78;46.25
58698;BME280;44475;53.206;-6.106;2024-03-25T16:06:30;98981.84;;;20.85;45.81
58698;BME280;44475;53.206;-6.106;2024-03-25T16:08:56;98986.59;;;20.83;45.64
58698;BME280;44475;53.206;-6.106;2024-03-25T16:11:22;99002.44;;;20.79;45.82
58698;BME280;44475;53.206;-6.106;2024-03-25T16:13:49;99008.91;;;20.78;45.79
58698;BME280;44475;53.206;-6.106;2024-03-25T16:16:15;99004.31;;;20.79;45.99
58698;BME280;44475;53.206;-6.106;2024-03-25T16:18:41;99011.63;;;20.78;45.75
58698;BME280;44475;53.206;-6.106;2024-03-25T16:21:14;99006.66;;;20.74;46.18
58698;BME280;44475;53.206;-6.106;2024-03-25T16:23:42;99012.47;;;20.79;46.04
58698;BME280;44475;53.206;-6.106;2024-03-25T16:26:09;99017.22;;;20.77;46.00
58698;BME280;44475;53.206;-6.106;2024-03-25T16:28:39;99009.91;;;20.77;46.10
58698;BME280;44475;53.206;-6.106;2024-03-25T16:31:05;99017.53;;;20.74;46.19
58698;BME280;44475;53.206;-6.106;2024-03-25T16:33:32;99020.31;;;20.82;45.94
58698;BME280;44475;53.206;-6.106;2024-03-25T16:35:58;99019.63;;;20.80;46.19
58698;BME280;44475;53.206;-6.106;2024-03-25T16:38:24;99026.41;;;20.76;46.34
58698;BME280;44475;53.206;-6.106;2024-03-25T16:40:50;99025.06;;;20.80;46.32
58698;BME280;44475;53.206;-6.106;2024-03-25T16:43:17;99037.13;;;20.77;46.33
58698;BME280;44475;53.206;-6.106;2024-03-25T16:45:44;99037.81;;;20.79;46.04
58698;BME280;44475;53.206;-6.106;2024-03-25T16:48:10;99042.41;;;20.79;46.00
58698;BME280;44475;53.206;-6.106;2024-03-25T16:50:36;99056.66;;;20.73;46.35
58698;BME280;44475;53.206;-6.106;2024-03-25T16:53:03;99057.69;;;20.71;46.37
58698;BME280;44475;53.206;-6.106;2024-03-25T16:55:29;99058.91;;;20.77;46.10
58698;BME280;44475;53.206;-6.106;2024-03-25T16:57:55;99063.50;;;20.77;46.24
58698;BME280;44475;53.206;-6.106;2024-03-25T17:00:22;99058.53;;;20.72;46.40
58698;BME280;44475;53.206;-6.106;2024-03-25T17:02:48;99067.53;;;20.73;46.46
58698;BME280;44475;53.206;-6.106;2024-03-25T17:05:14;99075.38;;;20.76;46.31
58698;BME280;44475;53.206;-6.106;2024-03-25T17:07:41;99067.38;;;20.74;46.42
58698;BME280;44475;53.206;-6.106;2024-03-25T17:10:07;99083.56;;;20.76;46.35
58698;BME280;44475;53.206;-6.106;2024-03-25T17:12:35;99077.91;;;20.69;46.16
58698;BME280;44475;53.206;-6.106;2024-03-25T17:15:04;99081.00;;;20.74;46.45
58698;BME280;44475;53.206;-6.106;2024-03-25T17:17:31;99081.00;;;20.74;46.58
58698;BME280;44475;53.206;-6.106;2024-03-25T17:20:01;99091.41;;;20.79;46.46
58698;BME280;44475;53.206;-6.106;2024-03-25T17:22:29;99105.66;;;20.73;46.17
58698;BME280;44475;53.206;-6.106;2024-03-25T17:24:56;99100.19;;;20.73;46.17
58698;BME280;44475;53.206;-6.106;2024-03-25T17:27:22;99097.88;;;20.78;46.09
58698;BME280;44475;53.206;-6.106;2024-03-25T17:29:49;99097.88;;;20.78;46.01
58698;BME280;44475;53.206;-6.106;2024-03-25T17:32:15;99102.75;;;20.74;46.37
58698;BME280;44475;53.206;-6.106;2024-03-25T17:34:41;99106.69;;;20.71;46.55
58698;BME280;44475;53.206;-6.106;2024-03-25T17:37:07;99102.75;;;20.74;46.09
58698;BME280;44475;53.206;-6.106;2024-03-25T17:39:34;99114.66;;;20.73;46.10
58698;BME280;44475;53.206;-6.106;2024-03-25T17:42:01;99110.75;;;20.67;46.42
58698;BME280;44475;53.206;-6.106;2024-03-25T17:44:28;99108.88;;;20.68;46.21
58698;BME280;44475;53.206;-6.106;2024-03-25T17:46:55;99113.16;;;20.70;46.09
58698;BME280;44475;53.206;-6.106;2024-03-25T17:49:23;99119.75;;;20.68;46.38
58698;BME280;44475;53.206;-6.106;2024-03-25T17:51:50;99116.72;;;20.71;46.36
58698;BME280;44475;53.206;-6.106;2024-03-25T17:54:17;99128.13;;;20.75;46.02
58698;BME280;44475;53.206;-6.106;2024-03-25T17:56:44;99124.19;;;20.69;46.05
58698;BME280;44475;53.206;-6.106;2024-03-25T17:59:11;99120.94;;;20.65;46.47
58698;BME280;44475;53.206;-6.106;2024-03-25T18:01:37;99130.63;;;20.68;46.12
58698;BME280;44475;53.206;-6.106;2024-03-25T18:04:04;99136.94;;;20.68;46.18
58698;BME280;44475;53.206;-6.106;2024-03-25T18:06:34;99136.09;;;20.68;46.23
58698;BME280;44475;53.206;-6.106;2024-03-25T18:09:00;99136.09;;;20.68;46.21
58698;BME280;44475;53.206;-6.106;2024-03-25T18:11:28;99147.81;;;20.68;46.38
58698;BME280;44475;53.206;-6.106;2024-03-25T18:13:54;99145.41;;;20.65;46.26
58698;BME280;44475;53.206;-6.106;2024-03-25T18:16:20;99149.53;;;20.69;46.34
58698;BME280;44475;53.206;-6.106;2024-03-25T18:18:47;99142.53;;;20.67;46.04
58698;BME280;44475;53.206;-6.106;2024-03-25T18:21:13;99143.56;;;20.66;46.38
58698;BME280;44475;53.206;-6.106;2024-03-25T18:23:39;99146.81;;;20.69;46.02
58698;BME280;44475;53.206;-6.106;2024-03-25T18:26:06;99145.06;;;20.60;46.55
58698;BME280;44475;53.206;-6.106;2024-03-25T18:28:33;99143.00;;;20.62;46.38
58698;BME280;44475;53.206;-6.106;2024-03-25T18:31:00;99143.38;;;20.67;46.16
58698;BME280;44475;53.206;-6.106;2024-03-25T18:33:27;99142.38;;;20.68;46.12
58698;BME280;44475;53.206;-6.106;2024-03-25T18:35:53;99146.13;;;20.67;46.48
58698;BME280;44475;53.206;-6.106;2024-03-25T18:38:19;99146.59;;;20.63;46.36
58698;BME280;44475;53.206;-6.106;2024-03-25T18:40:45;99139.97;;;20.65;46.08
58698;BME280;44475;53.206;-6.106;2024-03-25T18:43:12;99150.53;;;20.68;46.24
58698;BME280;44475;53.206;-6.106;2024-03-25T18:45:38;99143.25;;;20.69;46.17
58698;BME280;44475;53.206;-6.106;2024-03-25T18:48:04;99155.13;;;20.68;46.30
58698;BME280;44475;53.206;-6.106;2024-03-25T18:50:31;99153.59;;;20.65;46.14
58698;BME280;44475;53.206;-6.106;2024-03-25T18:52:57;99148.13;;;20.65;46.56
58698;BME280;44475;53.206;-6.106;2024-03-25T18:55:23;99154.97;;;20.69;46.11
58698;BME280;44475;53.206;-6.106;2024-03-25T18:57:49;99149.84;;;20.66;46.09
58698;BME280;44475;53.206;-6.106;2024-03-25T19:00:16;99150.00;;;20.65;46.37
58698;BME280;44475;53.206;-6.106;2024-03-25T19:02:43;99156.63;;;20.62;46.52
58698;BME280;44475;53.206;-6.106;2024-03-25T19:05:09;99155.09;;;20.59;46.51
58698;BME280;44475;53.206;-6.106;2024-03-25T19:07:35;99149.00;;;20.66;46.06
58698;BME280;44475;53.206;-6.106;2024-03-25T19:10:02;99156.47;;;20.64;46.14
58698;BME280;44475;53.206;-6.106;2024-03-25T19:12:30;99165.16;;;20.67;46.04
58698;BME280;44475;53.206;-6.106;2024-03-25T19:14:57;99166.72;;;20.70;46.10
58698;BME280;44475;53.206;-6.106;2024-03-25T19:17:23;99158.66;;;20.60;46.23
58698;BME280;44475;53.206;-6.106;2024-03-25T19:19:49;99165.81;;;20.61;46.29
58698;BME280;44475;53.206;-6.106;2024-03-25T19:22:15;99174.66;;;20.63;46.08
58698;BME280;44475;53.206;-6.106;2024-03-25T19:24:42;99178.63;;;20.69;46.19
58698;BME280;44475;53.206;-6.106;2024-03-25T19:27:08;99176.06;;;20.67;46.12
58698;BME280;44475;53.206;-6.106;2024-03-25T19:29:34;99173.47;;;20.66;46.01
58698;BME280;44475;53.206;-6.106;2024-03-25T19:32:00;99181.97;;;20.63;46.29
58698;BME280;44475;53.206;-6.106;2024-03-25T19:34:27;99181.81;;;20.64;45.96
58698;BME280;44475;53.206;-6.106;2024-03-25T19:36:53;99176.00;;;20.59;46.00
58698;BME280;44475;53.206;-6.106;2024-03-25T19:39:21;99182.59;;;20.56;46.35
58698;BME280;44475;53.206;-6.106;2024-03-25T19:41:47;99186.53;;;20.62;46.34
58698;BME280;44475;53.206;-6.106;2024-03-25T19:44:13;99187.19;;;20.56;46.41
58698;BME280;44475;53.206;-6.106;2024-03-25T19:46:40;99188.19;;;20.55;46.51
58698;BME280;44475;53.206;-6.106;2024-03-25T19:49:06;99190.63;;;20.58;46.30
58698;BME280;44475;53.206;-6.106;2024-03-25T19:51:32;99194.56;;;20.64;45.83
58698;BME280;44475;53.206;-6.106;2024-03-25T19:53:58;99192.69;;;20.64;46.21
58698;BME280;44475;53.206;-6.106;2024-03-25T19:56:24;99195.91;;;20.59;45.91
58698;BME280;44475;53.206;-6.106;2024-03-25T19:58:51;99188.97;;;20.65;46.24
58698;BME280;44475;53.206;-6.106;2024-03-25T20:01:17;99196.13;;;20.66;46.27
58698;BME280;44475;53.206;-6.106;2024-03-25T20:03:44;99196.81;;;20.68;46.10
58698;BME280;44475;53.206;-6.106;2024-03-25T20:06:12;99203.56;;;20.64;46.22
58698;BME280;44475;53.206;-6.106;2024-03-25T20:08:38;99190.66;;;20.66;46.23
58698;BME280;44475;53.206;-6.106;2024-03-25T20:11:04;99194.03;;;20.60;46.31
58698;BME280;44475;53.206;-6.106;2024-03-25T20:13:31;99200.16;;;20.62;46.06
58698;BME280;44475;53.206;-6.106;2024-03-25T20:15:57;99197.13;;;20.65;46.04
58698;BME280;44475;53.206;-6.106;2024-03-25T20:18:23;99195.91;;;20.59;46.02
58698;BME280;44475;53.206;-6.106;2024-03-25T20:20:49;99200.84;;;20.64;45.95
58698;BME280;44475;53.206;-6.106;2024-03-25T20:23:16;99197.81;;;20.67;45.92
58698;BME280;44475;53.206;-6.106;2024-03-25T20:25:43;99201.00;;;20.63;46.21
58698;BME280;44475;53.206;-6.106;2024-03-25T20:28:12;99196.91;;;20.58;46.23
58698;BME280;44475;53.206;-6.106;2024-03-25T20:30:38;99203.72;;;20.63;46.22
58698;BME280;44475;53.206;-6.106;2024-03-25T20:33:05;99200.16;;;20.62;46.14
58698;BME280;44475;53.206;-6.106;2024-03-25T20:35:35;99203.41;;;20.66;45.93
58698;BME280;44475;53.206;-6.106;2024-03-25T20:38:02;99194.09;;;20.68;46.03
58698;BME280;44475;53.206;-6.106;2024-03-25T20:40:28;99195.06;;;20.59;45.96
58698;BME280;44475;53.206;-6.106;2024-03-25T20:42:54;99196.91;;;20.58;46.04
58698;BME280;44475;53.206;-6.106;2024-03-25T20:45:20;99209.03;;;20.64;45.92
58698;BME280;44475;53.206;-6.106;2024-03-25T20:47:47;99198.47;;;20.61;46.17
58698;BME280;44475;53.206;-6.106;2024-03-25T20:50:14;99203.56;;;20.64;45.76
58698;BME280;44475;53.206;-6.106;2024-03-25T20:52:40;99206.28;;;20.64;45.86
58698;BME280;44475;53.206;-6.106;2024-03-25T20:55:07;99205.59;;;20.62;46.03
58698;BME280;44475;53.206;-6.106;2024-03-25T20:57:36;99203.72;;;20.63;46.15
58698;BME280;44475;53.206;-6.106;2024-03-25T21:00:03;99209.88;;;20.65;45.93
58698;BME280;44475;53.206;-6.106;2024-03-25T21:02:32;99209.03;;;20.64;45.80
58698;BME280;44475;53.206;-6.106;2024-03-25T21:04:58;99212.28;;;20.68;45.89
58698;BME280;44475;53.206;-6.106;2024-03-25T21:07:24;99211.28;;;20.69;45.89
58698;BME280;44475;53.206;-6.106;2024-03-25T21:09:50;99212.59;;;20.65;46.02
58698;BME280;44475;53.206;-6.106;2024-03-25T21:12:17;99206.16;;;20.66;45.75
58698;BME280;44475;53.206;-6.106;2024-03-25T21:14:43;99209.66;;;20.58;46.14
58698;BME280;44475;53.206;-6.106;2024-03-25T21:17:09;99209.66;;;20.58;46.02
58698;BME280;44475;53.206;-6.106;2024-03-25T21:19:36;99216.19;;;20.65;45.76
58698;BME280;44475;53.206;-6.106;2024-03-25T21:22:02;99209.81;;;20.56;46.10
58698;BME280;44475;53.206;-6.106;2024-03-25T21:24:28;99212.22;;;20.59;45.89
58698;BME280;44475;53.206;-6.106;2024-03-25T21:26:55;99215.09;;;20.58;46.03
58698;BME280;44475;53.206;-6.106;2024-03-25T21:29:21;99210.53;;;20.58;45.95
58698;BME280;44475;53.206;-6.106;2024-03-25T21:31:47;99215.09;;;20.58;45.85
58698;BME280;44475;53.206;-6.106;2024-03-25T21:34:13;99218.75;;;20.67;45.83
58698;BME280;44475;53.206;-6.106;2024-03-25T21:36:40;99209.41;;;20.69;45.91
58698;BME280;44475;53.206;-6.106;2024-03-25T21:39:06;99215.88;;;20.68;45.78
58698;BME280;44475;53.206;-6.106;2024-03-25T21:41:34;99218.19;;;20.63;45.70
58698;BME280;44475;53.206;-6.106;2024-03-25T21:44:00;99213.25;;;20.58;46.14
58698;BME280;44475;53.206;-6.106;2024-03-25T21:46:26;99213.25;;;20.58;46.15
58698;BME280;44475;53.206;-6.106;2024-03-25T21:48:53;99218.03;;;20.65;45.83
58698;BME280;44475;53.206;-6.106;2024-03-25T21:51:19;99211.59;;;20.66;45.80
58698;BME280;44475;53.206;-6.106;2024-03-25T21:53:45;99218.59;;;20.68;46.26
58698;BME280;44475;53.206;-6.106;2024-03-25T21:56:11;99213.84;;;20.70;46.47
58698;BME280;44475;53.206;-6.106;2024-03-25T21:58:39;99215.47;;;20.63;46.83
58698;BME280;44475;53.206;-6.106;2024-03-25T22:01:05;99213.28;;;20.67;46.72
58698;BME280;44475;53.206;-6.106;2024-03-25T22:03:31;99208.75;;;20.76;46.46
58698;BME280;44475;53.206;-6.106;2024-03-25T22:05:58;99206.94;;;20.85;46.99
58698;BME280;44475;53.206;-6.106;2024-03-25T22:08:24;99213.59;;;20.82;46.89
58698;BME280;44475;53.206;-6.106;2024-03-25T22:10:50;99212.53;;;20.83;46.91
58698;BME280;44475;53.206;-6.106;2024-03-25T22:13:16;99209.31;;;20.79;46.94
58698;BME280;44475;53.206;-6.106;2024-03-25T22:15:43;99205.72;;;20.79;47.02
58698;BME280;44475;53.206;-6.106;2024-03-25T22:18:09;99213.34;;;20.75;47.17
58698;BME280;44475;53.206;-6.106;2024-03-25T22:20:38;99216.13;;;20.84;46.72
58698;BME280;44475;53.206;-6.106;2024-03-25T22:23:05;99215.91;;;20.77;47.04
58698;BME280;44475;53.206;-6.106;2024-03-25T22:25:31;99216.97;;;20.84;46.85
58698;BME280;44475;53.206;-6.106;2024-03-25T22:27:58;99211.06;;;20.89;46.69
58698;BME280;44475;53.206;-6.106;2024-03-25T22:30:24;99207.19;;;20.91;46.64
58698;BME280;44475;53.206;-6.106;2024-03-25T22:32:50;99215.75;;;20.78;46.91
58698;BME280;44475;53.206;-6.106;2024-03-25T22:35:17;99214.25;;;20.84;46.75
58698;BME280;44475;53.206;-6.106;2024-03-25T22:37:43;99210.47;;;20.77;47.08
58698;BME280;44475;53.206;-6.106;2024-03-25T22:40:10;99213.03;;;20.78;46.22
58698;BME280;44475;53.206;-6.106;2024-03-25T22:42:37;99217.94;;;20.75;46.07
58698;BME280;44475;53.206;-6.106;2024-03-25T22:45:03;99221.31;;;20.68;46.04
58698;BME280;44475;53.206;-6.106;2024-03-25T22:47:29;99217.56;;;20.69;46.13
58698;BME280;44475;53.206;-6.106;2024-03-25T22:49:56;99210.63;;;20.75;45.83
58698;BME280;44475;53.206;-6.106;2024-03-25T22:52:22;99211.59;;;20.66;45.87
58698;BME280;44475;53.206;-6.106;2024-03-25T22:54:49;99204.66;;;20.71;46.01
58698;BME280;44475;53.206;-6.106;2024-03-25T22:57:15;99207.16;;;20.65;46.00
58698;BME280;44475;53.206;-6.106;2024-03-25T22:59:42;99202.97;;;20.70;45.74
58698;BME280;44475;53.206;-6.106;2024-03-25T23:02:08;99203.13;;;20.69;45.60
58698;BME280;44475;53.206;-6.106;2024-03-25T23:04:34;99205.44;;;20.64;45.87
58698;BME280;44475;53.206;-6.106;2024-03-25T23:07:01;99208.56;;;20.69;45.62
58698;BME280;44475;53.206;-6.106;2024-03-25T23:09:27;99199.00;;;20.65;45.85
58698;BME280;44475;53.206;-6.106;2024-03-25T23:11:54;99197.78;;;20.59;47.06
58698;BME280;44475;53.206;-6.106;2024-03-25T23:14:23;99192.38;;;20.67;47.30
58698;BME280;44475;53.206;-6.106;2024-03-25T23:16:51;99201.09;;;20.71;47.11
58698;BME280;44475;53.206;-6.106;2024-03-25T23:19:20;99198.53;;;20.69;46.76
58698;BME280;44475;53.206;-6.106;2024-03-25T23:21:49;99203.88;;;20.79;46.23
58698;BME280;44475;53.206;-6.106;2024-03-25T23:24:18;99156.97;;;20.40;46.00
58698;BME280;44475;53.206;-6.106;2024-03-25T23:26:46;99207.06;;;20.75;46.02
58698;BME280;44475;53.206;-6.106;2024-03-25T23:29:16;99194.09;;;20.68;46.04
58698;BME280;44475;53.206;-6.106;2024-03-25T23:31:49;99197.44;;;20.62;46.19
58698;BME280;44475;53.206;-6.106;2024-03-25T23:34:17;99192.47;;;20.57;46.25
58698;BME280;44475;53.206;-6.106;2024-03-25T23:36:46;99187.09;;;20.66;45.79
58698;BME280;44475;53.206;-6.106;2024-03-25T23:39:15;99192.31;;;20.59;46.15
58698;BME280;44475;53.206;-6.106;2024-03-25T23:41:45;99191.22;;;20.70;45.50
58698;BME280;44475;53.206;-6.106;2024-03-25T23:44:16;99188.97;;;20.65;45.54
58698;BME280;44475;53.206;-6.106;2024-03-25T23:46:45;99190.63;;;20.58;45.77
